B. John Yeager — WDB8150 — position and weather

sailwx.info

Track history (hours):
 
Tides and Currents Weather Stations Pressure Air Temp Water Temp Dewpoint Dewpoint Depression Visibility Wind Speed Wind Dir Waves Ship Positions

B. John Yeager

Owner: INGRAM BARGE COMPANY, Nashville, TN. More information available from US FCC via Universal Licensing System and Coast Guard Vessel Documentation Center.

Last reported at 2014-May-20 13:16 UTC. Time now 2014-Oct-20 13:17 UTC.
Position N 30°03' W 090°51'.
Warning: this ship's position is months out of date.

Length 54 m; draft 3.7 m.

Type: Tow > 200 m length. MMSI: 366953860.

Date/timePositionNaut miles runAvg speedWind from/ knotsBaromVisibWave heightAir tempDewpointWater temp
2014-May-20 13:16N 30°03' W 090°51'3 4.4
2014-May-20 12:31N 30°00' W 090°50'3 2.6
2014-May-20 11:33N 30°01' W 090°47'4 4.2
2014-May-20 10:33N 30°01' W 090°42'4 3.9
2014-May-20 09:33N 30°02' W 090°38'4 3.7
2014-May-20 08:33N 30°03' W 090°34'2 2.3
2014-May-20 07:33N 30°03' W 090°31'0 0.0
2014-May-20 06:33N 30°03' W 090°31'1 0.8
2014-May-20 05:33N 30°03' W 090°32'0 0.1
2014-May-20 04:33N 30°03' W 090°32'0 0.0
2014-May-20 03:33N 30°03' W 090°32'0 0.0
2014-May-20 02:33N 30°03' W 090°32'0 0.0
2014-May-20 01:33N 30°03' W 090°32'0 0.0
2014-May-20 00:33N 30°03' W 090°32'0 0.0
2014-May-19 23:33N 30°03' W 090°32'0 0.0
2014-May-19 22:33N 30°03' W 090°32'0 0.0
2014-May-19 21:33N 30°03' W 090°32'0 0.0
2014-May-19 20:33N 30°03' W 090°32'0 0.0
2014-May-19 19:33N 30°03' W 090°32'0 0.0
2014-May-19 18:33N 30°03' W 090°32'0 0.0
2014-May-19 17:33N 30°03' W 090°32'0 0.0
2014-May-19 15:33N 30°03' W 090°32'0 0.0
2014-May-19 14:33N 30°03' W 090°32'0 0.0
2014-May-19 13:33N 30°03' W 090°32'0 0.0
2014-May-19 12:33N 30°03' W 090°32'0 0.0
2014-May-19 11:33N 30°03' W 090°32'0 0.0
2014-May-19 10:33N 30°03' W 090°32'0 0.0
2014-May-19 09:33N 30°03' W 090°32'0 0.0
2014-May-19 08:33N 30°03' W 090°32'0 0.0
2014-May-19 07:33N 30°03' W 090°32'0 0.0
2014-May-19 06:33N 30°03' W 090°32'0 0.0
2014-May-19 05:33N 30°03' W 090°32'0 0.0
2014-May-19 04:33N 30°03' W 090°32'0 0.0
2014-May-19 03:33N 30°03' W 090°32'0 0.0
2014-May-19 02:33N 30°03' W 090°32'0 0.0
2014-May-19 01:33N 30°03' W 090°32'0 0.0
2014-May-19 00:33N 30°03' W 090°32'0 0.0
2014-May-18 23:33N 30°03' W 090°32'0 0.0
2014-May-18 22:33N 30°03' W 090°32'0 0.0
2014-May-18 21:33N 30°03' W 090°32'0 0.0
2014-May-18 20:33N 30°03' W 090°32'0 0.0
2014-May-18 19:33N 30°03' W 090°32'0 0.0
2014-May-18 18:33N 30°03' W 090°32'1 1.4
2014-May-18 17:33N 30°03' W 090°31'3 3.1
2014-May-18 16:33N 30°01' W 090°28'5 3.6
2014-May-18 15:05N 29°57' W 090°24'2 4.0
2014-May-18 14:33N 29°56' W 090°21'12 2.8
2014-May-18 10:17N 29°55' W 090°08'23 0.6
2014-May-16 17:33N 30°03' W 090°32'19 3.8
2014-May-16 12:24N 30°05' W 090°54'3 0.4
2014-May-16 06:32N 30°07' W 090°55'  
Track history (hours):
 
Tides and Currents Weather Stations Pressure Air Temp Water Temp Dewpoint Dewpoint Depression Visibility Wind Speed Wind Dir Waves Ship Positions

B. John Yeager

Owner: INGRAM BARGE COMPANY, Nashville, TN. More information available from US FCC via Universal Licensing System and Coast Guard Vessel Documentation Center.

Last reported at 2014-May-20 13:16 UTC. Time now 2014-Oct-20 13:17 UTC.
Position N 30°03' W 090°51'.
Warning: this ship's position is months out of date.

Length 54 m; draft 3.7 m.

Type: Tow > 200 m length. MMSI: 366953860.

Date/timePositionNaut miles runAvg speedWind from/ knotsBaromVisibWave heightAir tempDewpointWater temp
2014-May-20 13:16N 30°03' W 090°51'3 4.4
2014-May-20 12:31N 30°00' W 090°50'3 2.6
2014-May-20 11:33N 30°01' W 090°47'4 4.2
2014-May-20 10:33N 30°01' W 090°42'4 3.9
2014-May-20 09:33N 30°02' W 090°38'4 3.7
2014-May-20 08:33N 30°03' W 090°34'2 2.3
2014-May-20 07:33N 30°03' W 090°31'0 0.0
2014-May-20 06:33N 30°03' W 090°31'1 0.8
2014-May-20 05:33N 30°03' W 090°32'0 0.1
2014-May-20 04:33N 30°03' W 090°32'0 0.0
2014-May-20 03:33N 30°03' W 090°32'0 0.0
2014-May-20 02:33N 30°03' W 090°32'0 0.0
2014-May-20 01:33N 30°03' W 090°32'0 0.0
2014-May-20 00:33N 30°03' W 090°32'0 0.0
2014-May-19 23:33N 30°03' W 090°32'0 0.0
2014-May-19 22:33N 30°03' W 090°32'0 0.0
2014-May-19 21:33N 30°03' W 090°32'0 0.0
2014-May-19 20:33N 30°03' W 090°32'0 0.0
2014-May-19 19:33N 30°03' W 090°32'0 0.0
2014-May-19 18:33N 30°03' W 090°32'0 0.0
2014-May-19 17:33N 30°03' W 090°32'0 0.0
2014-May-19 15:33N 30°03' W 090°32'0 0.0
2014-May-19 14:33N 30°03' W 090°32'0 0.0
2014-May-19 13:33N 30°03' W 090°32'0 0.0
2014-May-19 12:33N 30°03' W 090°32'0 0.0
2014-May-19 11:33N 30°03' W 090°32'0 0.0
2014-May-19 10:33N 30°03' W 090°32'0 0.0
2014-May-19 09:33N 30°03' W 090°32'0 0.0
2014-May-19 08:33N 30°03' W 090°32'0 0.0
2014-May-19 07:33N 30°03' W 090°32'0 0.0
2014-May-19 06:33N 30°03' W 090°32'0 0.0
2014-May-19 05:33N 30°03' W 090°32'0 0.0
2014-May-19 04:33N 30°03' W 090°32'0 0.0
2014-May-19 03:33N 30°03' W 090°32'0 0.0
2014-May-19 02:33N 30°03' W 090°32'0 0.0
2014-May-19 01:33N 30°03' W 090°32'0 0.0
2014-May-19 00:33N 30°03' W 090°32'0 0.0
2014-May-18 23:33N 30°03' W 090°32'0 0.0
2014-May-18 22:33N 30°03' W 090°32'0 0.0
2014-May-18 21:33N 30°03' W 090°32'0 0.0
2014-May-18 20:33N 30°03' W 090°32'0 0.0
2014-May-18 19:33N 30°03' W 090°32'0 0.0
2014-May-18 18:33N 30°03' W 090°32'1 1.4
2014-May-18 17:33N 30°03' W 090°31'3 3.1
2014-May-18 16:33N 30°01' W 090°28'5 3.6
2014-May-18 15:05N 29°57' W 090°24'2 4.0
2014-May-18 14:33N 29°56' W 090°21'12 2.8
2014-May-18 10:17N 29°55' W 090°08'23 0.6
2014-May-16 17:33N 30°03' W 090°32'19 3.8
2014-May-16 12:24N 30°05' W 090°54'3 0.4
2014-May-16 06:32N 30°07' W 090°55'  

Dump ship's entire track history